Time;durP1;ratioP1;P1;durP2;ratioP2;P2;SDS_P1;SDS_P2;PMS_P1;PMS_P2;Temp;Humidity;BMP_temperature;BMP_pressure;BME280_temperature;BME280_humidity;BME280_pressure;Samples;Min_cycle;Max_cycle;Signal;HPM_P1;HPM_P2
2023/07/21 00:00:30;;;;;;;6.53;2.50;;;;;;;14.97;72.42;98394.41;5052697;28;20056;-40
2023/07/21 00:02:56;;;;;;;7.35;2.35;;;;;;;14.96;72.70;98396.19;5064526;28;20094;-40
2023/07/21 00:05:25;;;;;;;8.00;2.67;;;;;;;14.78;72.60;98364.31;5068306;28;20036;-40
2023/07/21 00:07:51;;;;;;;3.00;2.15;;;;;;;14.92;72.59;98392.09;5070038;28;20054;-40
2023/07/21 00:10:17;;;;;;;6.72;2.60;;;;;;;14.77;72.96;98362.66;5068552;28;20131;-41
2023/07/21 00:12:48;;;;;;;7.03;2.40;;;;;;;14.91;72.93;98379.13;5068489;28;20048;-39
2023/07/21 00:15:18;;;;;;;5.80;2.72;;;;;;;14.94;73.10;98384.13;5067620;28;20040;-41
2023/07/21 00:17:46;;;;;;;5.03;2.30;;;;;;;14.96;72.94;98390.09;5055243;28;20033;-40
2023/07/21 00:20:19;;;;;;;7.05;2.38;;;;;;;14.95;73.14;98381.41;5047358;28;20037;-40
2023/07/21 00:22:45;;;;;;;4.85;2.70;;;;;;;14.95;72.90;98377.97;5047151;28;20128;-40
2023/07/21 00:25:11;;;;;;;5.70;2.47;;;;;;;14.97;73.12;98378.69;5066556;28;20066;-40
2023/07/21 00:27:38;;;;;;;7.78;2.40;;;;;;;14.97;72.93;98384.75;5065235;28;20058;-40
2023/07/21 00:30:08;;;;;;;5.80;2.08;;;;;;;14.94;73.24;98384.13;5058009;28;20036;-39
2023/07/21 00:32:37;;;;;;;5.97;2.50;;;;;;;14.88;73.50;98374.13;5048706;28;20091;-40
2023/07/21 00:35:08;;;;;;;8.10;2.40;;;;;;;14.93;73.71;98388.53;5030876;28;20056;-40
2023/07/21 00:37:34;;;;;;;5.50;2.22;;;;;;;14.74;73.67;98356.81;5054934;28;20101;-40
2023/07/21 00:40:03;;;;;;;4.20;2.50;;;;;;;14.93;73.62;98387.69;5066442;28;20598;-41
2023/07/21 00:42:30;;;;;;;4.95;2.50;;;;;;;14.95;73.72;98394.50;5068053;28;20044;-40
2023/07/21 00:44:56;;;;;;;5.32;2.20;;;;;;;14.96;73.68;98393.56;5016267;28;20047;-40
2023/07/21 00:47:27;;;;;;;4.90;2.03;;;;;;;14.83;73.81;98370.06;5032085;28;20504;-41
2023/07/21 00:49:54;;;;;;;3.88;2.25;;;;;;;14.83;73.61;98363.97;5056224;28;20036;-41
2023/07/21 00:52:20;;;;;;;5.65;2.33;;;;;;;15.00;73.58;98386.31;5045102;28;20047;-41
2023/07/21 00:54:47;;;;;;;8.63;2.60;;;;;;;14.87;73.68;98361.97;5031785;28;20057;-41
2023/07/21 00:57:15;;;;;;;7.47;2.63;;;;;;;15.01;73.72;98391.44;5055730;28;20047;-41
2023/07/21 00:59:42;;;;;;;6.38;2.15;;;;;;;15.01;73.57;98393.22;5034155;28;20100;-39
2023/07/21 01:02:08;;;;;;;5.35;2.35;;;;;;;14.81;73.84;98361.47;5051446;28;20050;-41
2023/07/21 01:04:35;;;;;;;3.97;2.50;;;;;;;14.83;73.67;98363.97;5065553;28;20048;-40
2023/07/21 01:07:05;;;;;;;8.70;2.63;;;;;;;14.77;74.06;98353.97;5051595;28;20040;-40
2023/07/21 01:09:34;;;;;;;6.53;2.30;;;;;;;14.83;73.88;98363.97;5028395;28;20037;-41
2023/07/21 01:12:01;;;;;;;9.00;2.95;;;;;;;15.00;73.86;98395.00;5052808;28;20463;-41
2023/07/21 01:14:29;;;;;;;6.55;2.60;;;;;;;14.87;74.03;98375.88;5083342;28;20051;-40
2023/07/21 01:16:56;;;;;;;8.93;2.40;;;;;;;15.01;74.12;98401.06;5050956;28;20118;-40
2023/07/21 01:19:23;;;;;;;4.68;2.22;;;;;;;14.75;73.79;98355.88;5065148;28;20132;-40
2023/07/21 01:21:57;;;;;;;4.65;2.20;;;;;;;15.05;73.87;98400.75;5067929;28;20041;-40
2023/07/21 01:24:29;;;;;;;2.60;1.83;;;;;;;14.89;73.96;98379.25;5050336;28;20044;-39
2023/07/21 01:26:56;;;;;;;5.20;2.50;;;;;;;14.94;73.72;98382.38;5067106;28;20060;-40
2023/07/21 01:29:23;;;;;;;5.85;2.38;;;;;;;14.86;73.63;98373.41;5066711;28;20083;-39
2023/07/21 01:31:50;;;;;;;6.85;2.17;;;;;;;15.09;73.53;98401.34;5046938;28;20055;-40
2023/07/21 01:34:17;;;;;;;5.38;2.30;;;;;;;14.98;73.83;98383.81;5064659;28;20424;-40
2023/07/21 01:36:43;;;;;;;8.15;2.50;;;;;;;15.17;73.74;98409.47;5067382;28;20519;-40
2023/07/21 01:39:09;;;;;;;7.15;2.10;;;;;;;15.18;74.06;98411.97;5036073;28;20037;-41
2023/07/21 01:41:35;;;;;;;5.00;2.60;;;;;;;15.18;73.89;98409.34;5067635;28;20163;-40
2023/07/21 01:44:01;;;;;;;5.55;2.45;;;;;;;15.19;73.35;98416.25;5067721;28;20044;-40
2023/07/21 01:46:27;;;;;;;4.43;2.17;;;;;;;15.08;73.13;98391.81;5033417;28;20072;-40
2023/07/21 01:48:53;;;;;;;5.40;2.08;;;;;;;14.93;72.93;98369.38;5067241;28;20416;-41
2023/07/21 01:51:21;;;;;;;6.07;2.38;;;;;;;15.08;73.08;98390.03;5067020;28;20516;-39
2023/07/21 01:53:51;;;;;;;7.68;2.53;;;;;;;15.23;72.73;98412.47;5049485;28;20048;-39
2023/07/21 01:56:47;;;;;;;4.50;1.85;;;;;;;15.24;72.89;98418.53;5016283;28;20432;-39
2023/07/21 01:59:14;;;;;;;7.45;2.25;;;;;;;15.24;72.80;98414.13;5065075;28;20482;-39
2023/07/21 02:01:40;;;;;;;6.15;2.30;;;;;;;15.24;72.81;98415.91;5067235;28;20131;-39
2023/07/21 02:04:06;;;;;;;6.63;2.13;;;;;;;15.07;72.86;98388.34;5060704;28;20045;-40
2023/07/21 02:06:32;;;;;;;6.10;2.03;;;;;;;15.19;72.84;98418.88;5047749;28;20492;-40
2023/07/21 02:08:58;;;;;;;7.60;2.60;;;;;;;15.01;72.91;98386.22;5066032;28;20127;-40
2023/07/21 02:11:24;;;;;;;5.30;2.30;;;;;;;15.22;72.99;98413.44;5063436;28;20127;-40
2023/07/21 02:14:14;;;;;;;4.53;2.60;;;;;;;14.90;73.00;98375.69;5047793;28;20051;-40
2023/07/21 02:16:40;;;;;;;7.68;2.58;;;;;;;15.19;73.06;98423.28;5053915;28;20054;-40
2023/07/21 02:19:06;;;;;;;6.80;2.45;;;;;;;15.23;73.04;98422.09;5062615;28;20047;-40
2023/07/21 02:21:33;;;;;;;7.47;2.72;;;;;;;15.17;73.10;98409.47;5065528;28;20040;-40
2023/07/21 02:23:59;;;;;;;4.82;2.42;;;;;;;15.24;73.14;98424.63;5048224;28;20036;-40
2023/07/21 02:26:25;;;;;;;5.68;2.35;;;;;;;15.21;73.40;98422.25;5065044;28;20478;-42
2023/07/21 02:28:52;;;;;;;6.18;2.38;;;;;;;14.94;73.02;98373.66;5063187;28;20045;-39
2023/07/21 02:31:21;;;;;;;5.45;2.90;;;;;;;15.28;73.20;98417.38;5064915;28;20052;-40
2023/07/21 02:33:47;;;;;;;8.15;2.58;;;;;;;15.31;72.75;98422.38;5064841;28;20067;-40
2023/07/21 02:36:13;;;;;;;6.55;2.53;;;;;;;15.37;72.54;98421.94;5066380;28;20042;-40
2023/07/21 02:38:40;;;;;;;4.90;2.08;;;;;;;15.34;72.64;98418.69;5066763;28;20504;-39
2023/07/21 02:41:08;;;;;;;4.38;2.47;;;;;;;15.15;72.86;98385.19;5064617;28;20068;-40
2023/07/21 02:43:34;;;;;;;5.82;2.28;;;;;;;15.23;72.88;98396.75;5065828;28;20071;-40
2023/07/21 02:46:00;;;;;;;4.03;2.05;;;;;;;15.34;72.47;98422.16;5068007;28;20075;-40
2023/07/21 02:48:26;;;;;;;3.95;2.20;;;;;;;15.36;72.60;98416.81;5070344;28;20036;-40
2023/07/21 02:50:55;;;;;;;5.35;2.15;;;;;;;15.32;72.77;98418.84;5070657;28;20089;-40
2023/07/21 02:53:21;;;;;;;4.43;1.95;;;;;;;15.36;72.74;98416.81;5063458;28;20048;-40
2023/07/21 02:55:54;;;;;;;5.05;2.22;;;;;;;15.20;72.68;98383.91;5070392;28;20079;-39
2023/07/21 02:58:20;;;;;;;4.47;2.20;;;;;;;15.33;72.77;98415.28;5071419;28;20567;-40
2023/07/21 03:00:47;;;;;;;3.45;2.10;;;;;;;15.32;72.55;98408.34;5069970;28;20048;-40
2023/07/21 03:03:24;;;;;;;6.32;2.25;;;;;;;15.37;72.86;98414.09;5051232;28;20049;-39
2023/07/21 03:05:52;;;;;;;3.58;2.10;;;;;;;15.31;72.72;98398.81;5065338;28;20048;-39
2023/07/21 03:08:28;;;;;;;3.22;2.10;;;;;;;15.37;72.86;98408.84;5050275;28;20045;-39
2023/07/21 03:10:58;;;;;;;4.57;1.90;;;;;;;15.36;72.51;98414.19;5058350;28;20140;-40
2023/07/21 03:13:25;;;;;;;7.22;2.40;;;;;;;15.36;72.85;98408.94;5051184;28;20463;-39
2023/07/21 03:15:52;;;;;;;6.43;2.10;;;;;;;15.34;72.83;98398.59;5051928;28;20450;-40
2023/07/21 03:18:25;;;;;;;2.95;2.10;;;;;;;15.09;72.90;98370.75;5069048;28;20127;-39
2023/07/21 03:21:06;;;;;;;5.32;2.33;;;;;;;15.36;73.11;98403.72;5040817;28;20060;-39
2023/07/21 03:23:32;;;;;;;6.22;2.38;;;;;;;15.37;73.08;98395.75;5071282;28;20397;-38
2023/07/21 03:25:58;;;;;;;5.95;2.30;;;;;;;15.39;73.05;98401.69;5052988;28;20060;-40
2023/07/21 03:28:27;;;;;;;5.13;2.30;;;;;;;15.36;72.91;98388.84;5053002;28;20048;-40
2023/07/21 03:30:57;;;;;;;3.65;2.22;;;;;;;15.46;72.76;98402.91;5052726;28;20440;-40
2023/07/21 03:33:24;;;;;;;4.50;2.22;;;;;;;15.53;72.72;98387.63;5068838;28;20036;-40
2023/07/21 03:36:04;;;;;;;5.50;2.40;;;;;;;15.58;72.58;98394.19;5069380;28;20109;-40
2023/07/21 03:38:33;;;;;;;3.20;2.00;;;;;;;15.72;72.53;98397.53;5052958;28;20036;-39
2023/07/21 03:41:10;;;;;;;4.70;2.20;;;;;;;15.65;72.63;98394.53;5052807;28;20539;-40
2023/07/21 03:43:39;;;;;;;3.03;2.05;;;;;;;15.44;72.63;98376.00;5051868;28;20290;-40
2023/07/21 03:46:07;;;;;;;5.13;2.38;;;;;;;15.61;72.68;98408.81;5053701;28;20151;-40
2023/07/21 03:48:51;;;;;;;3.70;2.45;;;;;;;15.40;72.60;98382.41;5069876;28;20076;-41
2023/07/21 03:51:17;;;;;;;6.38;2.42;;;;;;;15.43;72.73;98387.44;5051345;28;20090;-40
2023/07/21 03:53:45;;;;;;;5.47;2.38;;;;;;;15.59;72.90;98419.44;5069054;28;20051;-40
2023/07/21 03:56:11;;;;;;;5.20;2.08;;;;;;;15.59;73.27;98415.97;5068412;28;20063;-41
2023/07/21 03:58:37;;;;;;;5.63;2.55;;;;;;;15.71;72.93;98419.44;5067627;28;20086;-40
2023/07/21 04:01:03;;;;;;;5.45;2.65;;;;;;;15.70;73.14;98420.41;5068800;28;20516;-39
2023/07/21 04:03:29;;;;;;;3.25;2.28;;;;;;;15.70;73.40;98416.00;5060555;28;20449;-40
2023/07/21 04:05:57;;;;;;;3.70;2.28;;;;;;;15.77;72.85;98425.06;5069777;28;20050;-39
2023/07/21 04:08:23;;;;;;;6.28;2.17;;;;;;;15.83;72.88;98432.47;5054342;28;20163;-38
2023/07/21 04:10:49;;;;;;;6.43;2.60;;;;;;;15.93;72.66;98432.59;5049417;28;20536;-39
2023/07/21 04:13:15;;;;;;;4.72;2.65;;;;;;;16.07;72.12;98427.13;5027118;28;20174;-39
2023/07/21 04:15:41;;;;;;;4.00;2.15;;;;;;;16.12;72.00;98426.81;5049151;28;20040;-40
2023/07/21 04:18:07;;;;;;;5.93;2.65;;;;;;;16.17;71.51;98432.53;5058137;28;20503;-40
2023/07/21 04:20:33;;;;;;;6.63;2.38;;;;;;;16.23;71.32;98427.63;5068422;28;20691;-40
2023/07/21 04:22:59;;;;;;;7.65;2.10;;;;;;;16.32;70.83;98440.03;5063144;28;20087;-40
2023/07/21 04:25:25;;;;;;;7.32;2.25;;;;;;;16.31;70.68;98433.13;5049973;28;20068;-40
2023/07/21 04:27:54;;;;;;;5.25;2.00;;;;;;;16.17;70.48;98441.22;5056203;28;20047;-40
2023/07/21 04:30:21;;;;;;;4.38;2.17;;;;;;;15.98;70.55;98418.19;5066774;28;20052;-40
2023/07/21 04:32:47;;;;;;;4.63;1.67;;;;;;;16.06;70.40;98454.31;5069782;28;20576;-39
2023/07/21 04:35:16;;;;;;;3.20;2.00;;;;;;;16.02;70.76;98440.59;5068353;28;20436;-40
2023/07/21 04:37:44;;;;;;;6.40;1.90;;;;;;;16.02;70.95;98456.31;5069136;28;20511;-40
2023/07/21 04:40:11;;;;;;;4.55;1.98;;;;;;;15.99;71.17;98450.47;5047695;28;20071;-39
2023/07/21 04:42:39;;;;;;;7.05;2.60;;;;;;;16.09;70.92;98449.66;5038042;28;20044;-39
2023/07/21 04:45:11;;;;;;;7.35;2.30;;;;;;;16.00;70.89;98436.44;5067657;28;20044;-40
2023/07/21 04:47:43;;;;;;;5.75;2.20;;;;;;;15.88;71.08;98427.72;5068626;28;20048;-40
2023/07/21 04:50:17;;;;;;;5.85;2.28;;;;;;;16.03;71.52;98449.28;5066909;28;20087;-41
2023/07/21 04:52:43;;;;;;;3.78;2.38;;;;;;;16.22;71.50;98449.56;5068369;28;20036;-40
2023/07/21 04:55:09;;;;;;;5.55;2.08;;;;;;;16.24;70.71;98426.66;5046855;28;20060;-39
2023/07/21 04:57:35;;;;;;;6.35;2.47;;;;;;;16.61;70.14;98457.94;5048343;28;20079;-39
2023/07/21 05:00:02;;;;;;;4.85;2.15;;;;;;;16.60;69.35;98451.03;5048314;28;20087;-41
2023/07/21 05:02:30;;;;;;;;;;;;;;;16.53;69.39;98458.53;5068292;28;20523;-40
2023/07/21 05:04:57;;;;;;;6.80;2.30;;;;;;;16.57;69.71;98452.06;5051176;28;20407;-40
2023/07/21 05:07:26;;;;;;;3.55;2.20;;;;;;;16.70;69.21;98458.03;5067158;28;20048;-39
2023/07/21 05:09:56;;;;;;;9.02;3.72;;;;;;;16.78;68.84;98449.59;5081575;28;20055;-40
2023/07/21 05:12:24;;;;;;;6.85;2.60;;;;;;;16.87;68.35;98449.69;5048210;28;20470;-38
2023/07/21 05:15:09;;;;;;;8.18;2.28;;;;;;;17.05;67.41;98444.75;5049644;28;20051;-39
2023/07/21 05:17:52;;;;;;;4.43;2.17;;;;;;;17.24;67.25;98452.81;5048522;28;20040;-40
2023/07/21 05:20:19;;;;;;;3.88;2.30;;;;;;;17.33;66.46;98448.59;5082767;28;20085;-40
2023/07/21 05:23:17;;;;;;;7.47;2.60;;;;;;;17.51;66.10;98448.91;5025527;28;20059;-40
2023/07/21 05:26:00;;;;;;;5.90;2.50;;;;;;;17.69;65.13;98442.16;5042238;28;20483;-40
2023/07/21 05:28:28;;;;;;;3.05;2.00;;;;;;;17.95;64.92;98447.88;5050145;28;20048;-40
2023/07/21 05:30:55;;;;;;;4.32;2.70;;;;;;;18.26;64.51;98456.63;5062441;28;20041;-40
2023/07/21 05:33:24;;;;;;;4.03;2.08;;;;;;;18.39;62.95;98458.06;5067270;28;20119;-39
2023/07/21 05:35:51;;;;;;;5.57;2.05;;;;;;;18.21;62.57;98446.50;5067170;28;20094;-40
2023/07/21 05:38:22;;;;;;;5.32;2.47;;;;;;;18.13;62.49;98443.66;5051117;28;20045;-40
2023/07/21 05:40:58;;;;;;;6.35;2.10;;;;;;;18.18;62.74;98452.00;5066511;28;20054;-40
2023/07/21 05:43:26;;;;;;;6.95;2.00;;;;;;;17.90;62.78;98426.38;5065734;28;20481;-40
2023/07/21 05:45:52;;;;;;;3.95;2.20;;;;;;;17.86;63.14;98444.19;5049881;28;20474;-40
2023/07/21 05:48:18;;;;;;;4.88;2.55;;;;;;;18.04;63.06;98458.44;5050667;28;20186;-40
2023/07/21 05:50:47;;;;;;;;;;;;;;;18.03;62.99;98458.56;5034359;28;20109;-40
2023/07/21 05:53:14;;;;;;;6.57;2.38;;;;;;;17.85;63.19;98444.34;5060197;28;19924;-40
2023/07/21 05:55:44;;;;;;;4.25;2.00;;;;;;;17.98;63.30;98437.09;5066420;28;20542;-40
2023/07/21 05:58:19;;;;;;;7.70;2.25;;;;;;;18.18;63.22;98459.91;5067273;28;20040;-41
2023/07/21 06:00:47;;;;;;;11.25;3.03;;;;;;;18.37;62.47;98457.34;5049039;28;20421;-41
2023/07/21 06:03:13;;;;;;;7.90;2.20;;;;;;;18.46;62.13;98459.22;5063314;28;20044;-41
2023/07/21 06:05:40;;;;;;;6.43;2.22;;;;;;;18.60;61.96;98458.06;5050660;28;20515;-42
2023/07/21 06:08:22;;;;;;;6.72;1.80;;;;;;;18.53;61.52;98420.84;5065942;28;20413;-41
2023/07/21 06:11:26;;;;;;;5.35;2.22;;;;;;;19.01;60.92;98450.00;4987878;28;20045;-41
2023/07/21 06:14:10;;;;;;;6.45;1.90;;;;;;;19.07;59.48;98416.16;5005684;28;20041;-39
2023/07/21 06:16:59;;;;;;;4.50;2.25;;;;;;;19.28;59.07;98440.59;5066419;28;20054;-48
2023/07/21 06:19:26;;;;;;;4.90;2.38;;;;;;;19.62;58.81;98441.91;5058350;28;20040;-40
2023/07/21 06:21:51;;;;;;;6.78;2.17;;;;;;;19.64;58.18;98445.22;5065449;28;20044;-40
2023/07/21 06:24:17;;;;;;;9.88;2.10;;;;;;;19.62;58.15;98441.06;5067080;28;20044;-40
2023/07/21 06:26:43;;;;;;;3.20;1.63;;;;;;;19.63;57.59;98418.97;5033761;28;20037;-41
2023/07/21 06:29:11;;;;;;;4.13;2.00;;;;;;;19.81;57.30;98444.50;5066017;28;20127;-40
2023/07/21 06:31:37;;;;;;;3.45;1.80;;;;;;;19.76;57.03;98440.63;5050141;28;20182;-40
2023/07/21 06:34:17;;;;;;;4.93;2.28;;;;;;;19.98;56.17;98432.41;5069187;28;20051;-39
2023/07/21 06:37:06;;;;;;;5.13;2.10;;;;;;;19.83;56.32;98400.38;5047880;28;20055;-39
2023/07/21 06:39:52;;;;;;;5.88;1.83;;;;;;;20.45;55.00;98433.25;5066777;28;20044;-40
2023/07/21 06:42:45;;;;;;;3.72;1.85;;;;;;;20.95;53.79;98427.56;5043820;28;20044;-40
2023/07/21 06:45:46;;;;;;;5.90;2.38;;;;;;;22.35;51.23;98436.41;5025574;28;20041;-40
2023/07/21 06:48:44;;;;;;;3.55;1.80;;;;;;;22.42;49.94;98441.06;5066753;28;20094;-39
2023/07/21 06:51:22;;;;;;;2.70;1.65;;;;;;;22.51;49.97;98434.81;5080710;28;20131;-40
2023/07/21 06:53:49;;;;;;;2.75;1.80;;;;;;;23.35;48.12;98437.44;5059633;28;20556;-40
2023/07/21 06:56:15;;;;;;;6.95;1.70;;;;;;;24.26;46.24;98435.50;5046590;28;20061;-40
2023/07/21 06:58:43;;;;;;;3.28;1.83;;;;;;;25.28;44.86;98438.88;5047836;28;20433;-41
2023/07/21 07:01:09;;;;;;;4.75;2.05;;;;;;;25.65;42.97;98432.00;5030724;28;20083;-41
2023/07/21 07:03:35;;;;;;;4.43;1.63;;;;;;;27.10;40.18;98436.84;5066371;28;20079;-43
2023/07/21 07:06:01;;;;;;;9.23;1.80;;;;;;;27.91;39.50;98439.09;5065919;28;20048;-40
2023/07/21 07:08:27;;;;;;;4.22;1.50;;;;;;;27.66;38.68;98400.47;5062590;28;20044;-44
2023/07/21 07:10:53;;;;;;;2.95;1.70;;;;;;;27.79;37.47;98421.94;5066443;28;20133;-41
2023/07/21 07:13:19;;;;;;;2.95;1.95;;;;;;;28.71;36.90;98440.47;5062713;28;20044;-40
2023/07/21 07:15:53;;;;;;;6.90;1.98;;;;;;;28.99;35.93;98431.38;5049218;28;20110;-41
2023/07/21 07:18:18;;;;;;;4.68;1.80;;;;;;;29.14;35.44;98439.25;5056913;28;20043;-40
2023/07/21 07:20:49;;;;;;;3.10;1.88;;;;;;;29.73;33.96;98436.69;5067398;28;20127;-41
2023/07/21 07:23:16;;;;;;;6.60;2.20;;;;;;;30.90;32.72;98444.00;5066177;28;20504;-41
2023/07/21 07:25:48;;;;;;;5.10;2.10;;;;;;;31.26;31.92;98446.97;5066607;28;20123;-41
2023/07/21 07:28:15;;;;;;;7.07;2.33;;;;;;;32.13;30.88;98427.38;5046115;28;20058;-40
2023/07/21 07:30:41;;;;;;;6.95;2.20;;;;;;;32.22;30.97;98436.81;5064766;28;20040;-40
2023/07/21 07:33:07;;;;;;;4.65;1.85;;;;;;;33.40;28.55;98444.56;5066280;28;20120;-39
2023/07/21 07:35:33;;;;;;;2.83;2.00;;;;;;;34.35;27.57;98443.50;5053249;28;20032;-40
2023/07/21 07:37:59;;;;;;;3.10;2.03;;;;;;;34.94;27.10;98448.84;5063210;28;20040;-39
2023/07/21 07:40:25;;;;;;;6.35;1.90;;;;;;;34.53;27.38;98436.34;5070626;28;20539;-40
2023/07/21 07:42:51;;;;;;;4.90;1.83;;;;;;;34.60;27.15;98431.63;5074961;28;20132;-40
2023/07/21 07:45:17;;;;;;;3.45;1.38;;;;;;;32.20;28.06;98443.44;5070800;28;20144;-41
2023/07/21 07:47:44;;;;;;;10.05;1.90;;;;;;;32.00;28.77;98430.16;5061839;28;20052;-40
2023/07/21 07:50:11;;;;;;;5.05;1.50;;;;;;;31.96;28.97;98431.63;5051054;28;20051;-39
2023/07/21 07:52:39;;;;;;;4.18;1.35;;;;;;;30.68;29.79;98420.13;5064317;28;20438;-39
2023/07/21 07:55:06;;;;;;;7.57;1.85;;;;;;;30.86;29.89;98422.16;5066492;28;20182;-40
2023/07/21 07:57:31;;;;;;;3.55;1.63;;;;;;;31.24;29.42;98440.19;5058094;28;20044;-40
2023/07/21 07:59:57;;;;;;;5.75;2.15;;;;;;;31.25;29.32;98431.09;5055855;28;20040;-40
2023/07/21 08:02:23;;;;;;;3.40;1.90;;;;;;;31.08;29.57;98439.63;5071037;28;20428;-40
2023/07/21 08:04:49;;;;;;;4.18;1.77;;;;;;;30.53;29.63;98450.94;5066676;28;20036;-39
2023/07/21 08:07:16;;;;;;;3.83;1.45;;;;;;;30.87;28.60;98447.13;5073229;28;20504;-40
2023/07/21 08:09:42;;;;;;;3.97;1.50;;;;;;;31.62;28.77;98448.22;5068046;28;20120;-39
2023/07/21 08:12:08;;;;;;;5.10;1.50;;;;;;;33.06;27.39;98448.75;5068963;28;20036;-38
2023/07/21 08:14:34;;;;;;;2.08;1.70;;;;;;;33.93;26.51;98444.63;5067644;28;20048;-39
2023/07/21 08:17:02;;;;;;;8.98;1.98;;;;;;;35.25;25.33;98460.03;5069418;28;20037;-40
2023/07/21 08:19:31;;;;;;;4.03;1.75;;;;;;;35.27;24.31;98451.69;5070069;28;20067;-41
2023/07/21 08:22:06;;;;;;;3.88;1.60;;;;;;;36.24;23.52;98448.81;5070218;28;20118;-39
2023/07/21 08:24:32;;;;;;;5.10;1.42;;;;;;;35.76;23.04;98463.69;5068522;28;20043;-39
2023/07/21 08:26:59;;;;;;;2.95;1.70;;;;;;;36.08;23.25;98453.94;5067907;28;20045;-41
2023/07/21 08:29:28;;;;;;;2.28;1.20;;;;;;;35.83;22.53;98453.53;5062187;28;20044;-43
2023/07/21 08:31:53;;;;;;;4.63;1.30;;;;;;;35.90;22.52;98456.09;5072526;28;20123;-42
2023/07/21 08:34:19;;;;;;;3.72;1.30;;;;;;;35.68;22.08;98456.81;5067324;28;20551;-42
2023/07/21 08:36:45;;;;;;;4.35;1.17;;;;;;;35.50;22.45;98457.00;5069246;28;20044;-45
2023/07/21 08:39:11;;;;;;;2.22;1.10;;;;;;;36.25;21.64;98436.91;5047361;28;20063;-42
2023/07/21 08:41:50;;;;;;;5.72;1.25;;;;;;;36.26;21.13;98452.09;5068399;28;20041;-42
2023/07/21 08:44:16;;;;;;;3.47;1.30;;;;;;;36.34;21.27;98448.94;5051576;28;20051;-43
2023/07/21 08:46:42;;;;;;;2.88;1.15;;;;;;;36.11;20.44;98452.66;5066008;28;20089;-44
2023/07/21 08:49:08;;;;;;;3.28;1.13;;;;;;;35.73;20.69;98460.66;5070112;28;20044;-41
2023/07/21 08:51:37;;;;;;;1.65;1.10;;;;;;;36.89;19.61;98444.34;5067462;28;20049;-41
2023/07/21 08:54:03;;;;;;;1.50;1.20;;;;;;;36.61;19.30;98451.78;5054297;28;20542;-41
2023/07/21 08:56:29;;;;;;;2.30;1.20;;;;;;;36.40;19.89;98447.97;5082183;28;20056;-40
2023/07/21 08:58:55;;;;;;;2.28;1.50;;;;;;;38.15;18.98;98457.59;5069998;28;20076;-42
2023/07/21 09:01:21;;;;;;;3.35;1.45;;;;;;;39.75;18.24;98461.31;5061835;28;20097;-42
2023/07/21 09:03:46;;;;;;;3.42;1.45;;;;;;;39.06;17.54;98460.03;5068073;28;20036;-40
2023/07/21 09:06:14;;;;;;;3.17;1.60;;;;;;;38.37;18.29;98455.56;5047793;28;20057;-41
2023/07/21 09:08:40;;;;;;;2.08;1.33;;;;;;;39.09;18.13;98464.94;5066718;28;20522;-40
2023/07/21 09:11:07;;;;;;;3.90;1.23;;;;;;;39.42;17.85;98467.25;5066657;28;20037;-40
2023/07/21 09:13:33;;;;;;;2.65;1.50;;;;;;;38.91;17.87;98464.34;5051590;28;20197;-41
2023/07/21 09:16:07;;;;;;;3.00;1.20;;;;;;;39.13;17.81;98452.44;5082859;28;20056;-41
2023/07/21 09:18:41;;;;;;;1.88;1.30;;;;;;;38.94;17.55;98452.91;5064791;28;20045;-40
2023/07/21 09:21:08;;;;;;;3.00;1.35;;;;;;;38.41;17.90;98453.16;5070275;28;20108;-40
2023/07/21 09:23:34;;;;;;;4.60;1.53;;;;;;;39.07;17.85;98434.47;5074340;28;20872;-42
2023/07/21 09:26:00;;;;;;;5.50;1.67;;;;;;;39.80;17.72;98457.81;5059725;28;20655;-40
2023/07/21 09:28:45;;;;;;;1.58;1.40;;;;;;;41.16;16.28;98462.22;5067551;28;20044;-39
2023/07/21 09:31:12;;;;;;;2.40;1.60;;;;;;;41.31;17.10;98453.94;5066811;28;20040;-41
2023/07/21 09:33:43;;;;;;;2.83;1.40;;;;;;;42.34;15.73;98452.94;5068724;28;20411;-40
2023/07/21 09:36:10;;;;;;;2.28;1.58;;;;;;;41.91;16.03;98456.59;5063737;28;20052;-40
2023/07/21 09:38:38;;;;;;;1.20;1.10;;;;;;;39.29;16.50;98460.38;5066551;28;20043;-40
2023/07/21 09:41:06;;;;;;;3.58;1.60;;;;;;;37.24;18.34;98446.66;5060701;28;20124;-40
2023/07/21 09:43:33;;;;;;;1.77;1.40;;;;;;;38.17;18.06;98445.38;5057247;28;20044;-40
2023/07/21 09:46:03;;;;;;;1.63;1.30;;;;;;;40.30;17.26;98446.09;5050228;28;20535;-40
2023/07/21 09:48:30;;;;;;;2.33;1.77;;;;;;;41.76;15.97;98454.75;5070020;28;20045;-41
2023/07/21 09:51:03;;;;;;;2.33;1.40;;;;;;;41.51;16.11;98457.69;5030057;28;20041;-42
2023/07/21 09:53:40;;;;;;;4.22;0.90;;;;;;;41.46;15.39;98442.13;5061779;28;20055;-45
2023/07/21 09:56:07;;;;;;;;;;;;;;;40.21;16.62;98458.63;5058462;28;20127;-44
2023/07/21 09:58:40;;;;;;;1.77;0.90;;;;;;;38.70;17.71;98450.88;5063735;28;19924;-45
2023/07/21 10:01:09;;;;;;;1.67;0.80;;;;;;;36.36;18.95;98444.13;5063588;28;20549;-41
2023/07/21 10:03:36;;;;;;;1.70;1.00;;;;;;;33.91;21.06;98444.88;5068264;28;20029;-44
2023/07/21 10:06:03;;;;;;;3.13;0.90;;;;;;;32.01;23.23;98447.09;5066039;28;20047;-39
2023/07/21 10:08:36;;;;;;;2.40;1.15;;;;;;;30.92;24.93;98428.53;5065217;28;20531;-40
2023/07/21 10:11:05;;;;;;;2.55;1.25;;;;;;;29.41;27.00;98438.34;5055617;28;20087;-40
2023/07/21 10:13:32;;;;;;;1.70;1.00;;;;;;;28.37;29.08;98449.34;5062379;28;20132;-42
2023/07/21 10:16:01;;;;;;;3.38;1.00;;;;;;;28.21;30.44;98469.19;5064943;28;20033;-40
2023/07/21 10:18:26;;;;;;;2.28;1.00;;;;;;;27.78;32.13;98466.53;5047215;28;20047;-41
2023/07/21 10:20:54;;;;;;;4.57;1.00;;;;;;;27.51;34.21;98458.44;5058251;28;20048;-41
2023/07/21 10:23:26;;;;;;;3.00;1.10;;;;;;;27.53;35.53;98457.22;5062936;28;20041;-39
2023/07/21 10:26:02;;;;;;;1.38;1.10;;;;;;;30.54;31.64;98436.50;5067161;28;20040;-41
2023/07/21 10:28:44;;;;;;;1.60;1.00;;;;;;;34.27;27.49;98462.75;5061828;28;20048;-41
2023/07/21 10:31:26;;;;;;;1.50;0.93;;;;;;;35.97;24.11;98462.16;5047855;28;20040;-40
2023/07/21 10:34:07;;;;;;;1.17;1.08;;;;;;;36.96;22.41;98462.28;5066922;28;20043;-41
2023/07/21 10:36:51;;;;;;;1.58;1.25;;;;;;;38.02;21.81;98466.16;5078042;28;20040;-40
2023/07/21 10:39:23;;;;;;;2.53;1.20;;;;;;;39.42;20.51;98448.19;5065463;28;20249;-41
2023/07/21 10:41:59;;;;;;;2.28;1.17;;;;;;;40.31;19.47;98460.50;5065732;28;20428;-40
2023/07/21 10:44:38;;;;;;;2.93;1.20;;;;;;;40.67;19.16;98456.63;5066689;28;20478;-39
2023/07/21 10:47:24;;;;;;;1.20;1.10;;;;;;;41.03;17.33;98444.53;5047446;28;20500;-41
2023/07/21 10:49:51;;;;;;;1.60;1.50;;;;;;;41.90;17.74;98446.75;5064026;28;20048;-43
2023/07/21 10:52:17;;;;;;;3.23;1.50;;;;;;;42.39;17.49;98444.69;5061819;28;20048;-42
2023/07/21 10:54:42;;;;;;;1.45;1.33;;;;;;;42.90;16.44;98442.19;5063182;28;20763;-39
2023/07/21 10:57:08;;;;;;;1.50;1.40;;;;;;;42.22;16.52;98442.38;5033424;28;20464;-38
2023/07/21 10:59:35;;;;;;;3.78;1.70;;;;;;;42.60;16.32;98431.59;5062164;28;20508;-42
2023/07/21 11:02:03;;;;;;;1.77;1.60;;;;;;;43.81;16.26;98454.59;5063783;28;20040;-41
2023/07/21 11:04:30;;;;;;;3.10;1.95;;;;;;;43.35;15.42;98432.56;5046971;28;20037;-41
2023/07/21 11:06:57;;;;;;;;;;;;;;;41.80;16.42;98445.72;5066588;28;20055;-41
2023/07/21 11:09:24;;;;;;;3.25;1.00;;;;;;;37.88;18.48;98414.19;5069369;28;19942;-40
2023/07/21 11:12:00;;;;;;;1.90;1.00;;;;;;;35.01;21.44;98431.44;5061982;28;20060;-38
2023/07/21 11:14:27;;;;;;;3.55;1.30;;;;;;;33.24;23.13;98435.25;5056095;28;20427;-39
2023/07/21 11:17:00;;;;;;;2.47;0.95;;;;;;;32.27;26.11;98428.06;5062267;28;20122;-40
2023/07/21 11:19:34;;;;;;;6.82;1.30;;;;;;;30.29;28.52;98388.88;5055522;28;20127;-42
2023/07/21 11:21:59;;;;;;;4.68;1.20;;;;;;;29.50;29.94;98427.41;5059339;28;20040;-40
2023/07/21 11:24:28;;;;;;;1.85;1.15;;;;;;;28.99;31.28;98425.19;5063740;28;20620;-40
2023/07/21 11:26:54;;;;;;;;;;;;;;;28.76;31.32;98428.19;5065852;28;20036;-40
2023/07/21 11:29:20;;;;;;;2.63;1.00;;;;;;;28.70;32.14;98406.72;5066009;28;19974;-40
2023/07/21 11:31:46;;;;;;;1.92;0.93;;;;;;;28.01;30.96;98407.50;5069565;28;20769;-41
2023/07/21 11:34:26;;;;;;;1.65;0.90;;;;;;;27.70;31.08;98439.09;5070406;28;20044;-42
2023/07/21 11:36:58;;;;;;;3.17;0.98;;;;;;;27.29;31.54;98433.53;5057078;28;20123;-40
2023/07/21 11:39:27;;;;;;;1.75;1.00;;;;;;;27.51;31.61;98431.75;5069785;28;20432;-39
2023/07/21 11:41:57;;;;;;;1.52;1.00;;;;;;;27.16;31.94;98406.72;5068980;28;20046;-39
2023/07/21 11:44:25;;;;;;;2.17;1.25;;;;;;;27.47;32.36;98435.78;5069742;28;20067;-39